Time;durP1;ratioP1;P1;durP2;ratioP2;P2;SDS_P1;SDS_P2;PMS_P1;PMS_P2;Temp;Humidity;BMP_temperature;BMP_pressure;BME280_temperature;BME280_humidity;BME280_pressure;Samples;Min_cycle;Max_cycle;Signal;HPM_P1;HPM_P2
2024/01/18 00:00:20;;;;;;;59.47;35.03;;;1.10;99.90;;;;;;2109429;28;20023;-71
2024/01/18 00:01:21;;;;;;;56.88;34.22;;;1.10;99.90;;;;;;2106664;28;20119;-70
2024/01/18 00:02:22;;;;;;;59.90;35.42;;;1.10;99.90;;;;;;2105968;28;20032;-71
2024/01/18 00:03:23;;;;;;;56.63;33.70;;;1.10;99.90;;;;;;2109503;28;20020;-72
2024/01/18 00:04:23;;;;;;;58.58;34.47;;;1.10;99.90;;;;;;2094154;28;20021;-72
2024/01/18 00:05:24;;;;;;;58.03;34.38;;;1.10;99.90;;;;;;2105521;28;20029;-71
2024/01/18 00:06:25;;;;;;;59.50;35.90;;;1.10;99.90;;;;;;2106237;28;20367;-71
2024/01/18 00:07:25;;;;;;;60.17;35.45;;;1.10;99.90;;;;;;2108311;28;20036;-71
2024/01/18 00:08:26;;;;;;;56.53;34.35;;;1.10;99.90;;;;;;2106003;28;20030;-71
2024/01/18 00:09:27;;;;;;;59.35;35.78;;;1.10;99.90;;;;;;2106795;28;20028;-70
2024/01/18 00:10:28;;;;;;;60.25;36.33;;;1.10;99.90;;;;;;2108917;28;20059;-71
2024/01/18 00:11:28;;;;;;;61.10;35.63;;;1.10;99.90;;;;;;2106625;28;20035;-72
2024/01/18 00:12:29;;;;;;;58.83;35.17;;;1.20;99.90;;;;;;2102943;28;20043;-71
2024/01/18 00:13:29;;;;;;;58.20;35.85;;;1.20;99.90;;;;;;2109099;28;20342;-72
2024/01/18 00:14:30;;;;;;;58.90;35.92;;;1.20;99.90;;;;;;2104570;28;20126;-71
2024/01/18 00:15:31;;;;;;;58.83;35.40;;;1.20;99.90;;;;;;2105874;28;20101;-71
2024/01/18 00:16:33;;;;;;;60.67;36.42;;;1.20;99.90;;;;;;2105040;28;20393;-72
2024/01/18 00:17:37;;;;;;;57.90;35.05;;;1.20;99.90;;;;;;2109783;27;20100;-71
2024/01/18 00:18:37;;;;;;;62.35;36.67;;;1.20;99.90;;;;;;2106251;28;20084;-71
2024/01/18 00:19:38;;;;;;;63.70;37.38;;;1.20;99.90;;;;;;2105826;28;20087;-72
2024/01/18 00:20:38;;;;;;;63.55;36.67;;;1.10;99.90;;;;;;2106019;28;20031;-72
2024/01/18 00:21:39;;;;;;;64.20;37.40;;;1.10;99.90;;;;;;2105745;28;20028;-71
2024/01/18 00:22:39;;;;;;;64.10;37.90;;;1.10;99.90;;;;;;2105452;28;20120;-71
2024/01/18 00:23:40;;;;;;;59.78;36.65;;;1.10;99.90;;;;;;2100490;28;20882;-70
2024/01/18 00:24:41;;;;;;;58.58;35.28;;;1.10;99.90;;;;;;2099030;28;20024;-72
2024/01/18 00:25:41;;;;;;;63.95;37.08;;;1.10;99.90;;;;;;2105356;27;20092;-71
2024/01/18 00:26:42;;;;;;;60.95;36.53;;;1.20;99.90;;;;;;2105652;28;20193;-71
2024/01/18 00:27:42;;;;;;;70.38;39.33;;;1.20;99.90;;;;;;2105620;28;20106;-71
2024/01/18 00:28:43;;;;;;;65.13;38.45;;;1.10;99.90;;;;;;2106209;28;20481;-72
2024/01/18 00:29:43;;;;;;;67.70;39.47;;;1.20;99.90;;;;;;2104499;28;20046;-71
2024/01/18 00:30:44;;;;;;;65.20;39.28;;;1.20;99.90;;;;;;2107883;28;20102;-72
2024/01/18 00:31:44;;;;;;;66.43;39.33;;;1.20;99.90;;;;;;2095667;28;20036;-72
2024/01/18 00:32:45;;;;;;;65.97;40.17;;;1.10;99.90;;;;;;2104856;28;20035;-71
2024/01/18 00:33:45;;;;;;;72.18;41.90;;;1.10;99.90;;;;;;2104209;28;20047;-72
2024/01/18 00:34:46;;;;;;;68.20;41.05;;;1.10;99.90;;;;;;2087144;28;20044;-70
2024/01/18 00:35:48;;;;;;;69.90;41.53;;;1.10;99.90;;;;;;2089769;28;20379;-72
2024/01/18 00:36:49;;;;;;;70.38;42.47;;;1.10;99.90;;;;;;2108842;28;20028;-71
2024/01/18 00:37:50;;;;;;;70.50;41.78;;;1.10;99.90;;;;;;2104588;28;20028;-72
2024/01/18 00:38:50;;;;;;;69.70;42.42;;;1.10;99.90;;;;;;2102242;28;20802;-71
2024/01/18 00:39:54;;;;;;;70.13;41.80;;;1.10;99.90;;;;;;2104543;28;20023;-71
2024/01/18 00:40:54;;;;;;;71.95;42.58;;;1.10;99.90;;;;;;2107318;28;20012;-75
2024/01/18 00:41:55;;;;;;;72.57;42.20;;;1.10;99.90;;;;;;2105988;28;20022;-75
2024/01/18 00:42:55;;;;;;;68.25;40.80;;;1.10;99.90;;;;;;2107808;28;20019;-76
2024/01/18 00:43:56;;;;;;;71.70;42.22;;;1.00;99.90;;;;;;2104969;28;20071;-75
2024/01/18 00:44:56;;;;;;;70.78;41.97;;;1.10;99.90;;;;;;2108114;28;20027;-75
2024/01/18 00:46:03;;;;;;;72.18;43.08;;;1.00;99.90;;;;;;2105009;28;20048;-75
2024/01/18 00:47:03;;;;;;;72.18;43.03;;;1.00;99.90;;;;;;2105305;28;20031;-75
2024/01/18 00:48:04;;;;;;;70.63;41.20;;;1.00;99.90;;;;;;2105174;28;20034;-74
2024/01/18 00:49:05;;;;;;;70.85;42.42;;;1.00;99.90;;;;;;2106996;28;20032;-76
2024/01/18 00:50:06;;;;;;;69.18;41.97;;;1.00;99.90;;;;;;2107883;28;20020;-74
2024/01/18 00:51:06;;;;;;;70.28;40.92;;;1.00;99.90;;;;;;2108034;28;20039;-73
2024/01/18 00:52:07;;;;;;;71.97;42.28;;;1.00;99.90;;;;;;2101611;28;20020;-74
2024/01/18 00:53:08;;;;;;;69.80;41.17;;;1.00;99.90;;;;;;2106783;28;20485;-73
2024/01/18 00:54:08;;;;;;;66.72;40.78;;;1.00;99.90;;;;;;2096741;28;20032;-73
2024/01/18 00:55:10;;;;;;;69.75;41.00;;;1.00;99.90;;;;;;2098346;28;20031;-74
2024/01/18 00:56:11;;;;;;;67.22;40.53;;;1.00;99.90;;;;;;2099420;28;20008;-75
2024/01/18 00:57:11;;;;;;;70.97;42.88;;;1.00;99.90;;;;;;2098917;28;20039;-74
2024/01/18 00:58:13;;;;;;;72.05;42.88;;;1.00;99.90;;;;;;2098227;28;20029;-76
2024/01/18 00:59:13;;;;;;;68.18;41.45;;;1.00;99.90;;;;;;2105458;28;20544;-74
2024/01/18 01:00:14;;;;;;;68.53;41.33;;;1.00;99.90;;;;;;2106625;28;20123;-75
2024/01/18 01:01:16;;;;;;;68.07;41.17;;;1.00;99.90;;;;;;2104886;28;20016;-74
2024/01/18 01:02:16;;;;;;;66.80;40.47;;;1.00;99.90;;;;;;2105618;28;20035;-74
2024/01/18 01:03:17;;;;;;;69.07;40.72;;;1.00;99.90;;;;;;2107591;28;20098;-75
2024/01/18 01:04:17;;;;;;;68.70;41.10;;;1.00;99.90;;;;;;2100704;28;20032;-75
2024/01/18 01:05:18;;;;;;;67.93;41.05;;;1.00;99.90;;;;;;2102816;28;20027;-75
2024/01/18 01:06:18;;;;;;;69.88;41.42;;;1.00;99.90;;;;;;2104699;28;20027;-75
2024/01/18 01:07:19;;;;;;;70.32;42.08;;;1.00;99.90;;;;;;2104716;28;20019;-74
2024/01/18 01:08:19;;;;;;;68.60;41.65;;;1.00;99.90;;;;;;2101853;28;20034;-76
2024/01/18 01:09:20;;;;;;;69.47;41.17;;;1.00;99.90;;;;;;2106740;28;20031;-75
2024/01/18 01:10:21;;;;;;;67.20;41.80;;;1.00;99.90;;;;;;2093794;28;20031;-74
2024/01/18 01:11:21;;;;;;;70.55;43.03;;;1.00;99.90;;;;;;2104818;28;20043;-75
2024/01/18 01:12:22;;;;;;;68.50;40.78;;;1.00;99.90;;;;;;2106806;28;20213;-76
2024/01/18 01:13:22;;;;;;;71.32;42.15;;;1.00;99.90;;;;;;2105488;28;20034;-76
2024/01/18 01:14:23;;;;;;;70.45;41.15;;;1.00;99.90;;;;;;2098042;28;20153;-76
2024/01/18 01:15:23;;;;;;;72.03;43.33;;;1.00;99.90;;;;;;2104328;28;20027;-76
2024/01/18 01:16:24;;;;;;;66.85;40.85;;;1.00;99.90;;;;;;2097057;28;20040;-77
2024/01/18 01:17:25;;;;;;;73.50;42.85;;;1.00;99.90;;;;;;2099557;28;20048;-75
2024/01/18 01:18:26;;;;;;;72.15;42.53;;;1.00;99.90;;;;;;2097441;28;20028;-74
2024/01/18 01:19:26;;;;;;;71.40;42.05;;;1.00;99.90;;;;;;2090886;28;20094;-75
2024/01/18 01:20:27;;;;;;;70.20;42.92;;;1.00;99.90;;;;;;2105508;28;20737;-75
2024/01/18 01:21:28;;;;;;;73.47;43.42;;;1.00;99.90;;;;;;2104450;28;20438;-74
2024/01/18 01:22:29;;;;;;;75.03;43.00;;;1.00;99.90;;;;;;2108270;28;20062;-75
2024/01/18 01:23:29;;;;;;;74.65;43.58;;;1.00;99.90;;;;;;2105231;28;20498;-76
2024/01/18 01:24:30;;;;;;;78.10;45.55;;;1.00;99.90;;;;;;2105521;28;20051;-75
2024/01/18 01:25:31;;;;;;;75.05;43.40;;;0.90;99.90;;;;;;2106915;28;20235;-74
2024/01/18 01:26:31;;;;;;;74.32;42.97;;;0.90;99.90;;;;;;2101878;28;22559;-75
2024/01/18 01:27:32;;;;;;;75.22;44.33;;;0.90;99.90;;;;;;2104207;28;20027;-75
2024/01/18 01:28:32;;;;;;;71.82;42.30;;;0.90;99.90;;;;;;2107378;28;20072;-75
2024/01/18 01:29:33;;;;;;;76.13;43.08;;;0.90;99.90;;;;;;2103132;28;20449;-75
2024/01/18 01:30:33;;;;;;;77.68;43.67;;;0.90;99.90;;;;;;2103940;28;20032;-75
2024/01/18 01:31:34;;;;;;;74.93;42.80;;;0.90;99.90;;;;;;2098282;28;20088;-74
2024/01/18 01:32:34;;;;;;;75.47;42.50;;;0.90;99.90;;;;;;2101897;28;20032;-76
2024/01/18 01:33:35;;;;;;;75.82;42.60;;;0.80;99.90;;;;;;2101184;28;20067;-76
2024/01/18 01:34:36;;;;;;;80.47;44.35;;;0.80;99.90;;;;;;2106392;28;20027;-75
2024/01/18 01:35:36;;;;;;;80.25;45.03;;;0.80;99.90;;;;;;2103495;28;20042;-77
2024/01/18 01:36:37;;;;;;;81.22;44.20;;;0.80;99.90;;;;;;2109966;28;20052;-75
2024/01/18 01:37:38;;;;;;;79.80;43.92;;;0.80;99.90;;;;;;2107131;28;20031;-75
2024/01/18 01:38:38;;;;;;;74.60;42.65;;;0.70;99.90;;;;;;2107024;28;20043;-75
2024/01/18 01:39:39;;;;;;;81.18;45.53;;;0.70;99.90;;;;;;2108316;28;20463;-74
2024/01/18 01:40:40;;;;;;;80.63;44.22;;;0.70;99.90;;;;;;2107034;28;20027;-74
2024/01/18 01:41:40;;;;;;;83.18;46.13;;;0.70;99.90;;;;;;2107611;28;20501;-75
2024/01/18 01:42:41;;;;;;;85.65;47.08;;;0.70;99.90;;;;;;2108454;28;20027;-75
2024/01/18 01:44:02;;;;;;;79.55;44.25;;;0.70;99.90;;;;;;2104854;28;20045;-76
2024/01/18 01:45:03;;;;;;;78.07;43.20;;;0.70;99.90;;;;;;2107565;28;20035;-74
2024/01/18 01:46:04;;;;;;;80.45;44.22;;;0.70;99.90;;;;;;2106212;28;20020;-73
2024/01/18 01:47:04;;;;;;;82.57;45.38;;;0.70;99.90;;;;;;2103825;28;20485;-73
2024/01/18 01:48:07;;;;;;;78.93;42.75;;;0.70;99.90;;;;;;2105295;28;20465;-74
2024/01/18 01:49:08;;;;;;;79.88;43.63;;;0.70;99.90;;;;;;2104474;28;20039;-75
2024/01/18 01:50:09;;;;;;;81.57;44.97;;;0.60;99.90;;;;;;2102852;28;20031;-75
2024/01/18 01:51:10;;;;;;;81.55;45.10;;;0.60;99.90;;;;;;2106501;28;20453;-74
2024/01/18 01:52:11;;;;;;;78.85;43.15;;;0.60;99.90;;;;;;2104861;28;20024;-76
2024/01/18 01:53:14;;;;;;;80.68;44.08;;;0.60;99.90;;;;;;2103186;28;20611;-74
2024/01/18 01:54:18;;;;;;;77.55;42.83;;;0.60;99.90;;;;;;2101332;28;20024;-74
2024/01/18 01:55:19;;;;;;;79.55;44.25;;;0.60;99.90;;;;;;2102908;28;20032;-76
2024/01/18 01:56:20;;;;;;;78.38;42.90;;;0.60;99.90;;;;;;2107068;28;20045;-75
2024/01/18 01:57:25;;;;;;;78.53;43.08;;;0.60;99.90;;;;;;2102912;28;20469;-75
2024/01/18 01:58:26;;;;;;;75.97;42.10;;;0.60;99.90;;;;;;2102706;28;20502;-76
2024/01/18 01:59:26;;;;;;;78.53;42.83;;;0.60;99.90;;;;;;2105315;28;20042;-75
2024/01/18 02:00:27;;;;;;;77.03;42.25;;;0.60;99.90;;;;;;2104340;28;20511;-75
2024/01/18 02:01:28;;;;;;;75.03;42.00;;;0.50;99.90;;;;;;2103708;28;20435;-74
2024/01/18 02:02:29;;;;;;;84.88;45.67;;;0.50;99.90;;;;;;2104740;28;20027;-75
2024/01/18 02:03:30;;;;;;;78.35;43.58;;;0.50;99.90;;;;;;2103718;28;20016;-75
2024/01/18 02:04:30;;;;;;;77.75;42.53;;;0.50;99.90;;;;;;2095630;28;20057;-74
2024/01/18 02:05:31;;;;;;;76.93;42.90;;;0.50;99.90;;;;;;2097459;28;20090;-74
2024/01/18 02:06:34;;;;;;;81.32;43.42;;;0.50;99.90;;;;;;2106731;28;20019;-74
2024/01/18 02:07:38;;;;;;;76.85;43.25;;;0.60;99.90;;;;;;2106016;28;20023;-74
2024/01/18 02:08:39;;;;;;;83.07;43.92;;;0.50;99.90;;;;;;2105057;28;20045;-74
2024/01/18 02:09:40;;;;;;;82.53;44.78;;;0.50;99.90;;;;;;2099637;28;20393;-73
2024/01/18 02:10:41;;;;;;;78.30;42.92;;;0.50;99.90;;;;;;2107571;28;20031;-74
2024/01/18 02:11:41;;;;;;;77.75;43.60;;;0.60;99.90;;;;;;2105513;28;20020;-75
2024/01/18 02:12:42;;;;;;;80.40;43.95;;;0.60;99.90;;;;;;2104226;28;20106;-75
2024/01/18 02:13:43;;;;;;;80.03;44.75;;;0.60;99.90;;;;;;2097291;28;20036;-75
2024/01/18 02:14:44;;;;;;;83.32;44.92;;;0.60;99.90;;;;;;2097337;28;20019;-75
2024/01/18 02:15:45;;;;;;;80.57;44.63;;;0.60;99.90;;;;;;2096904;28;20197;-74
2024/01/18 02:16:46;;;;;;;80.43;44.38;;;0.60;99.90;;;;;;2107420;28;21044;-74
2024/01/18 02:17:46;;;;;;;80.13;44.03;;;0.60;99.90;;;;;;2105321;28;20376;-74
2024/01/18 02:18:47;;;;;;;79.55;43.65;;;0.50;99.90;;;;;;2104600;28;20816;-74
2024/01/18 02:19:48;;;;;;;82.20;44.53;;;0.60;99.90;;;;;;2104559;28;20119;-75
2024/01/18 02:20:48;;;;;;;77.38;42.95;;;0.60;99.90;;;;;;2103549;28;20040;-75
2024/01/18 02:21:49;;;;;;;80.53;44.28;;;0.60;99.90;;;;;;2104331;28;20037;-74
2024/01/18 02:22:50;;;;;;;83.13;45.60;;;0.60;99.90;;;;;;2105679;28;20047;-74
2024/01/18 02:23:57;;;;;;;76.72;42.83;;;0.60;99.90;;;;;;2104746;28;20062;-73
2024/01/18 02:25:10;;;;;;;79.55;43.95;;;0.60;99.90;;;;;;2103135;28;20032;-73
2024/01/18 02:26:11;;;;;;;80.13;43.45;;;0.60;99.90;;;;;;2104258;28;20031;-75
2024/01/18 02:27:12;;;;;;;77.88;43.67;;;0.60;99.90;;;;;;2107637;28;20015;-76
2024/01/18 02:28:12;;;;;;;76.28;42.75;;;0.60;99.90;;;;;;2105954;28;20094;-75
2024/01/18 02:29:13;;;;;;;75.75;41.45;;;0.60;99.90;;;;;;2104043;28;20468;-75
2024/01/18 02:30:13;;;;;;;75.15;41.42;;;0.60;99.90;;;;;;2105367;28;20024;-75
2024/01/18 02:31:14;;;;;;;77.43;43.45;;;0.60;99.90;;;;;;2107046;28;20374;-75
2024/01/18 02:32:14;;;;;;;69.78;40.25;;;0.60;99.90;;;;;;2101752;28;20028;-74
2024/01/18 02:33:15;;;;;;;77.03;43.00;;;0.50;99.90;;;;;;2104161;28;20036;-73
2024/01/18 02:34:17;;;;;;;77.97;43.33;;;0.50;99.90;;;;;;2104647;28;20039;-75
2024/01/18 02:35:18;;;;;;;76.50;42.97;;;0.50;99.90;;;;;;2094456;28;20410;-75
2024/01/18 02:36:20;;;;;;;73.30;41.60;;;0.60;99.90;;;;;;2104095;28;20440;-75
2024/01/18 02:37:21;;;;;;;76.25;41.63;;;0.60;99.90;;;;;;2102435;28;20566;-75
2024/01/18 02:38:22;;;;;;;76.07;42.38;;;0.60;99.90;;;;;;2104297;28;20036;-75
2024/01/18 02:39:22;;;;;;;75.32;42.60;;;0.60;99.90;;;;;;2102671;28;20371;-75
2024/01/18 02:40:23;;;;;;;74.90;41.90;;;0.60;99.90;;;;;;2104029;28;20529;-76
2024/01/18 02:41:24;;;;;;;72.07;41.38;;;0.50;99.90;;;;;;2096578;28;20115;-74
2024/01/18 02:42:24;;;;;;;71.90;41.05;;;0.50;99.90;;;;;;2104308;28;20450;-74
2024/01/18 02:43:25;;;;;;;72.38;41.90;;;0.50;99.90;;;;;;2104145;28;20027;-75
2024/01/18 02:44:27;;;;;;;73.43;41.05;;;0.50;99.90;;;;;;2107765;28;20015;-74
2024/01/18 02:45:29;;;;;;;71.05;40.72;;;0.60;99.90;;;;;;2102072;28;20020;-74
2024/01/18 02:46:33;;;;;;;71.78;41.15;;;0.60;99.90;;;;;;2106404;28;20161;-74
2024/01/18 02:47:35;;;;;;;69.97;40.88;;;0.50;99.90;;;;;;2105649;28;20027;-74
2024/01/18 02:48:36;;;;;;;73.78;41.70;;;0.50;99.90;;;;;;2105410;28;20027;-74
2024/01/18 02:49:37;;;;;;;71.82;41.05;;;0.50;99.90;;;;;;2103755;28;20478;-74
2024/01/18 02:50:41;;;;;;;70.75;40.05;;;0.60;99.90;;;;;;2104553;28;20503;-75
2024/01/18 02:51:43;;;;;;;72.63;39.78;;;0.60;99.90;;;;;;2106005;28;20035;-75
2024/01/18 02:52:43;;;;;;;70.00;38.75;;;0.50;99.90;;;;;;2106718;28;20016;-75
2024/01/18 02:53:44;;;;;;;69.60;39.50;;;0.50;99.90;;;;;;2100600;28;20119;-75
2024/01/18 02:54:45;;;;;;;69.40;38.88;;;0.50;99.90;;;;;;2103631;28;20016;-75
2024/01/18 02:55:45;;;;;;;69.47;39.53;;;0.50;99.90;;;;;;2104038;28;20024;-75
2024/01/18 02:56:46;;;;;;;66.05;38.10;;;0.50;99.90;;;;;;2104143;28;20016;-75
2024/01/18 02:57:46;;;;;;;66.80;38.33;;;0.50;99.90;;;;;;2106178;28;20028;-75
2024/01/18 02:58:47;;;;;;;64.95;37.15;;;0.50;99.90;;;;;;2097143;28;20052;-74
2024/01/18 02:59:47;;;;;;;67.53;38.22;;;0.50;99.90;;;;;;2097542;28;20949;-74
2024/01/18 03:00:49;;;;;;;65.88;38.42;;;0.50;99.90;;;;;;2101122;28;21407;-75
2024/01/18 03:01:49;;;;;;;66.22;38.13;;;0.50;99.90;;;;;;2094882;28;20055;-75
2024/01/18 03:02:50;;;;;;;62.42;36.72;;;0.50;99.90;;;;;;2105582;28;20019;-75
2024/01/18 03:03:50;;;;;;;62.92;37.45;;;0.50;99.90;;;;;;2100166;28;20426;-75
2024/01/18 03:04:51;;;;;;;63.28;36.20;;;0.50;99.90;;;;;;2104667;28;20491;-74
2024/01/18 03:05:51;;;;;;;66.32;37.95;;;0.50;99.90;;;;;;2102977;28;20081;-74
2024/01/18 03:06:52;;;;;;;61.80;35.08;;;0.50;99.90;;;;;;2105169;28;20622;-75
2024/01/18 03:07:52;;;;;;;59.17;34.28;;;0.50;99.90;;;;;;2103447;28;20055;-75
2024/01/18 03:08:53;;;;;;;59.88;34.05;;;0.40;99.90;;;;;;2105757;28;20042;-75
2024/01/18 03:09:53;;;;;;;59.67;34.80;;;0.50;99.90;;;;;;2104272;28;20054;-76
2024/01/18 03:10:54;;;;;;;62.97;36.08;;;0.50;99.90;;;;;;2104903;28;20057;-75
2024/01/18 03:11:54;;;;;;;60.10;34.40;;;0.50;99.90;;;;;;2103063;28;20514;-74
2024/01/18 03:12:55;;;;;;;58.13;34.15;;;0.50;99.90;;;;;;2104187;28;20482;-76
2024/01/18 03:13:55;;;;;;;57.83;33.10;;;0.50;99.90;;;;;;2103413;28;20430;-75
2024/01/18 03:14:56;;;;;;;51.15;30.05;;;0.50;99.90;;;;;;2105513;28;20032;-74
2024/01/18 03:15:56;;;;;;;48.75;29.10;;;0.50;99.90;;;;;;2100162;28;20102;-75
2024/01/18 03:16:57;;;;;;;54.60;31.45;;;0.50;99.90;;;;;;2101322;28;20587;-75
2024/01/18 03:17:57;;;;;;;50.22;30.00;;;0.50;99.90;;;;;;2103699;28;20074;-75
2024/01/18 03:18:58;;;;;;;52.13;30.80;;;0.50;99.90;;;;;;2100431;28;20039;-75
2024/01/18 03:19:58;;;;;;;50.30;30.92;;;0.50;99.90;;;;;;2103057;28;20027;-75
2024/01/18 03:20:59;;;;;;;49.80;29.52;;;0.50;99.90;;;;;;2103997;28;20035;-75
2024/01/18 03:22:00;;;;;;;50.53;30.17;;;0.40;99.90;;;;;;2101263;28;20123;-75
2024/01/18 03:23:01;;;;;;;51.97;30.23;;;0.40;99.90;;;;;;2106086;28;20416;-75
2024/01/18 03:24:01;;;;;;;49.50;29.55;;;0.40;99.90;;;;;;2101009;28;20615;-74
2024/01/18 03:25:02;;;;;;;47.90;28.52;;;0.40;99.90;;;;;;2102517;28;20185;-70
2024/01/18 03:26:03;;;;;;;48.17;28.42;;;0.40;99.90;;;;;;2106885;28;20094;-71
2024/01/18 03:27:04;;;;;;;45.47;27.35;;;0.40;99.90;;;;;;2101698;28;20379;-72
2024/01/18 03:28:04;;;;;;;48.60;29.05;;;0.40;99.90;;;;;;2096576;28;20499;-75
2024/01/18 03:29:05;;;;;;;44.67;27.17;;;0.40;99.90;;;;;;2100711;28;20119;-74
2024/01/18 03:30:09;;;;;;;41.95;26.00;;;0.40;99.90;;;;;;2093013;28;20033;-75
2024/01/18 03:31:11;;;;;;;40.22;24.52;;;0.30;99.90;;;;;;2096609;28;20027;-75
2024/01/18 03:32:12;;;;;;;40.80;25.02;;;0.40;99.90;;;;;;2097436;28;20050;-74
2024/01/18 03:33:13;;;;;;;41.70;25.02;;;0.40;99.90;;;;;;2100704;28;20028;-74
2024/01/18 03:34:13;;;;;;;40.35;24.15;;;0.40;99.90;;;;;;2100969;28;20034;-74
2024/01/18 03:35:14;;;;;;;39.55;23.83;;;0.40;99.90;;;;;;2102019;28;20028;-75
2024/01/18 03:36:14;;;;;;;40.58;23.55;;;0.40;99.90;;;;;;2102352;28;20076;-73
2024/01/18 03:37:15;;;;;;;40.78;24.85;;;0.30;99.90;;;;;;2104553;28;20023;-73
2024/01/18 03:38:15;;;;;;;42.22;24.88;;;0.30;99.90;;;;;;2101502;28;20092;-75
2024/01/18 03:39:16;;;;;;;42.38;25.27;;;0.30;99.90;;;;;;2105495;28;20032;-74
2024/01/18 03:40:17;;;;;;;42.47;24.67;;;0.30;99.90;;;;;;2088222;28;20501;-76
2024/01/18 03:41:17;;;;;;;38.45;23.38;;;0.30;99.90;;;;;;2095630;28;20103;-75
2024/01/18 03:42:18;;;;;;;40.20;24.10;;;0.30;99.90;;;;;;2103267;28;20102;-75
2024/01/18 03:43:19;;;;;;;41.58;23.48;;;0.30;99.90;;;;;;2094406;28;20020;-75
2024/01/18 03:44:19;;;;;;;38.58;23.98;;;0.30;99.90;;;;;;2106057;28;20032;-76
2024/01/18 03:45:20;;;;;;;38.88;24.30;;;0.30;99.90;;;;;;2103817;28;20063;-75
2024/01/18 03:46:20;;;;;;;36.90;22.10;;;0.30;99.90;;;;;;2102705;28;20046;-75
2024/01/18 03:47:21;;;;;;;39.83;23.55;;;0.30;99.90;;;;;;2102324;28;20035;-74
2024/01/18 03:48:21;;;;;;;41.65;24.35;;;0.20;99.90;;;;;;2104257;28;20041;-74
2024/01/18 03:49:22;;;;;;;39.42;23.58;;;0.20;99.90;;;;;;2104065;28;20093;-74
2024/01/18 03:50:23;;;;;;;38.85;23.15;;;0.20;99.90;;;;;;2105647;28;20015;-74
2024/01/18 03:51:23;;;;;;;36.97;22.38;;;0.20;99.90;;;;;;2103826;28;20032;-75
2024/01/18 03:52:24;;;;;;;34.20;21.65;;;0.20;99.90;;;;;;2094567;28;20028;-75
2024/01/18 03:53:24;;;;;;;37.63;22.45;;;0.20;99.90;;;;;;2101526;28;20031;-75
2024/01/18 03:54:25;;;;;;;37.70;22.65;;;0.20;99.90;;;;;;2095208;28;20176;-75
2024/01/18 03:55:25;;;;;;;40.45;23.38;;;0.20;99.90;;;;;;2095206;28;20016;-75
2024/01/18 03:56:26;;;;;;;40.50;24.13;;;0.10;99.90;;;;;;2105238;28;20073;-75
2024/01/18 03:57:26;;;;;;;39.22;23.50;;;0.10;99.90;;;;;;2102538;28;20024;-75
2024/01/18 03:58:27;;;;;;;40.53;24.35;;;0.10;99.90;;;;;;2101625;28;20048;-75
2024/01/18 03:59:29;;;;;;;38.50;24.15;;;0.20;99.90;;;;;;2104976;28;20089;-75
2024/01/18 04:00:29;;;;;;;41.53;24.58;;;0.10;99.90;;;;;;2106664;28;20035;-76
2024/01/18 04:01:31;;;;;;;41.72;24.38;;;0.10;99.90;;;;;;2105388;28;20008;-75
2024/01/18 04:02:32;;;;;;;42.60;24.17;;;0.10;99.90;;;;;;2098495;28;20032;-75
2024/01/18 04:03:32;;;;;;;42.97;24.35;;;0.20;99.90;;;;;;2095431;28;20430;-75
2024/01/18 04:04:33;;;;;;;43.00;25.17;;;0.20;99.90;;;;;;2106635;28;20025;-75
2024/01/18 04:05:33;;;;;;;48.72;28.10;;;0.20;99.90;;;;;;2097608;28;20110;-75
2024/01/18 04:06:34;;;;;;;44.75;26.85;;;0.20;99.90;;;;;;2101989;28;20024;-74
2024/01/18 04:07:37;;;;;;;42.53;25.58;;;0.20;99.90;;;;;;2096226;28;20059;-74
2024/01/18 04:08:38;;;;;;;46.42;27.17;;;0.20;99.90;;;;;;2096718;28;20020;-75
2024/01/18 04:09:40;;;;;;;49.53;27.85;;;0.10;99.90;;;;;;2098421;28;20028;-74
2024/01/18 04:10:41;;;;;;;47.20;28.67;;;0.10;99.90;;;;;;2094354;28;20028;-75
2024/01/18 04:11:42;;;;;;;50.67;28.80;;;0.10;99.90;;;;;;2097463;28;20761;-75
2024/01/18 04:12:43;;;;;;;48.35;27.92;;;0.10;99.90;;;;;;2103352;28;20024;-75
2024/01/18 04:13:43;;;;;;;48.53;28.85;;;0.20;99.90;;;;;;2101770;28;20061;-75
2024/01/18 04:14:44;;;;;;;53.40;29.38;;;0.10;99.90;;;;;;2095225;28;20052;-74
2024/01/18 04:15:45;;;;;;;52.38;29.80;;;0.20;99.90;;;;;;2102793;28;20038;-76
2024/01/18 04:16:46;;;;;;;49.95;29.42;;;0.20;99.90;;;;;;2105822;28;20077;-75
2024/01/18 04:17:47;;;;;;;55.05;30.88;;;0.20;99.90;;;;;;2098146;28;20493;-74
2024/01/18 04:18:47;;;;;;;52.75;28.90;;;0.20;99.90;;;;;;2101677;28;20375;-73
2024/01/18 04:19:48;;;;;;;56.10;30.38;;;0.20;99.90;;;;;;2105825;28;20032;-75
2024/01/18 04:20:52;;;;;;;53.42;29.80;;;0.20;99.90;;;;;;2099066;28;20077;-75
2024/01/18 04:21:53;;;;;;;51.30;30.23;;;0.20;99.90;;;;;;2099586;28;20045;-75
2024/01/18 04:22:54;;;;;;;53.47;30.65;;;0.20;99.90;;;;;;2095780;28;20060;-74
2024/01/18 04:23:56;;;;;;;56.83;30.63;;;0.10;99.90;;;;;;2099253;28;20401;-75
2024/01/18 04:24:57;;;;;;;52.50;29.20;;;0.20;99.90;;;;;;2096304;28;20107;-76
2024/01/18 04:25:58;;;;;;;54.15;30.33;;;0.10;99.90;;;;;;2099769;28;20379;-75
2024/01/18 04:26:58;;;;;;;54.35;30.25;;;0.10;99.90;;;;;;2099733;28;20109;-74
2024/01/18 04:27:59;;;;;;;52.28;29.85;;;0.10;99.90;;;;;;2096013;28;20600;-74
2024/01/18 04:29:00;;;;;;;51.92;29.65;;;0.10;99.90;;;;;;2105671;28;20031;-75
2024/01/18 04:30:02;;;;;;;55.15;30.20;;;0.10;99.90;;;;;;2101900;28;20020;-74
2024/01/18 04:31:03;;;;;;;55.25;28.98;;;0.10;99.90;;;;;;2101733;28;20036;-74
2024/01/18 04:32:03;;;;;;;52.17;30.00;;;0.10;99.90;;;;;;2091861;28;20046;-74
2024/01/18 04:33:04;;;;;;;55.33;29.40;;;0.10;99.90;;;;;;2093955;28;20070;-75
2024/01/18 04:34:05;;;;;;;52.70;29.75;;;0.10;99.90;;;;;;2098388;28;20116;-74
2024/01/18 04:35:05;;;;;;;55.00;30.13;;;0.10;99.90;;;;;;2093823;28;20031;-74
2024/01/18 04:36:06;;;;;;;56.10;31.08;;;0.10;99.90;;;;;;2094949;28;20035;-74
2024/01/18 04:37:07;;;;;;;50.53;29.52;;;0.10;99.90;;;;;;2105017;28;20047;-74
2024/01/18 04:38:08;;;;;;;53.17;29.67;;;0.10;99.90;;;;;;2101823;28;20140;-75
2024/01/18 04:39:09;;;;;;;55.53;31.15;;;0.10;99.90;;;;;;2093038;28;20040;-74
2024/01/18 04:40:10;;;;;;;55.83;30.80;;;0.10;99.90;;;;;;2094741;28;20124;-74
2024/01/18 04:41:10;;;;;;;55.13;31.13;;;0.10;99.90;;;;;;2098903;28;20037;-74
2024/01/18 04:42:11;;;;;;;52.75;30.50;;;0.10;99.90;;;;;;2101019;28;20023;-76
2024/01/18 04:43:12;;;;;;;51.88;30.08;;;0.10;99.90;;;;;;2096998;28;20070;-74
2024/01/18 04:44:13;;;;;;;53.47;31.15;;;0.10;99.90;;;;;;2098465;28;20025;-75
2024/01/18 04:45:13;;;;;;;57.03;32.65;;;0.10;99.90;;;;;;2092967;28;20086;-74
2024/01/18 04:46:14;;;;;;;62.38;34.90;;;0.10;99.90;;;;;;2093267;28;20528;-74
2024/01/18 04:47:15;;;;;;;50.38;29.63;;;0.10;99.90;;;;;;2093103;28;20028;-74
2024/01/18 04:48:15;;;;;;;55.65;30.50;;;0.10;99.90;;;;;;2100479;28;20089;-74
2024/01/18 04:49:16;;;;;;;52.58;30.70;;;0.20;99.90;;;;;;2101786;28;20019;-74
2024/01/18 04:50:17;;;;;;;54.92;29.67;;;0.20;99.90;;;;;;2097088;28;20038;-74
2024/01/18 04:51:20;;;;;;;50.22;29.00;;;0.30;99.90;;;;;;2097073;28;20032;-75
2024/01/18 04:52:20;;;;;;;51.78;30.13;;;0.30;99.90;;;;;;2101262;28;20031;-74
2024/01/18 04:53:21;;;;;;;53.75;30.65;;;0.30;99.90;;;;;;2102179;28;20032;-74
2024/01/18 04:54:21;;;;;;;50.75;28.98;;;0.30;99.90;;;;;;2101966;28;20046;-74
2024/01/18 04:55:22;;;;;;;47.95;27.83;;;0.30;99.90;;;;;;2094452;28;20406;-74
2024/01/18 04:56:23;;;;;;;43.72;25.40;;;0.30;99.90;;;;;;2101184;28;20569;-74
2024/01/18 04:57:24;;;;;;;43.33;25.48;;;0.20;99.90;;;;;;2099988;28;20023;-73
2024/01/18 04:58:25;;;;;;;39.63;23.63;;;0.10;99.90;;;;;;2087360;28;20025;-74
2024/01/18 04:59:25;;;;;;;32.42;18.70;;;0.10;99.90;;;;;;2087125;28;20041;-74
2024/01/18 05:00:26;;;;;;;38.42;21.45;;;0.00;99.90;;;;;;2105061;28;20421;-75
2024/01/18 05:01:26;;;;;;;38.47;22.45;;;-0.10;99.90;;;;;;2093787;28;20375;-75
2024/01/18 05:02:27;;;;;;;38.55;21.02;;;-0.10;99.90;;;;;;2093827;28;20040;-75
2024/01/18 05:03:27;;;;;;;37.30;21.98;;;0.00;99.90;;;;;;2093804;28;20051;-76
2024/01/18 05:04:29;;;;;;;36.95;21.38;;;0.00;99.90;;;;;;2093039;28;20223;-75
2024/01/18 05:05:29;;;;;;;37.20;21.52;;;-0.10;99.90;;;;;;2097059;28;20036;-75
2024/01/18 05:06:31;;;;;;;41.13;23.20;;;-0.10;99.90;;;;;;2101984;28;20116;-75
2024/01/18 05:07:32;;;;;;;37.38;20.70;;;-0.10;99.90;;;;;;2097798;28;20093;-75
2024/01/18 05:08:32;;;;;;;33.65;19.30;;;-0.10;99.90;;;;;;2098919;28;20024;-75
2024/01/18 05:09:33;;;;;;;33.10;18.70;;;-0.20;99.90;;;;;;2100357;28;20510;-75
2024/01/18 05:10:34;;;;;;;30.73;18.83;;;-0.30;99.90;;;;;;2099353;28;20021;-75
2024/01/18 05:11:34;;;;;;;34.47;19.52;;;-0.20;99.90;;;;;;2102588;28;20043;-75
2024/01/18 05:12:35;;;;;;;36.47;19.58;;;-0.30;99.90;;;;;;2099665;28;20132;-75